createdAt,value
2022-10-11T00:02:16.390Z,9.82
2022-10-11T00:04:43.194Z,9.95
2022-10-11T00:07:10.086Z,9.50
2022-10-11T00:09:36.853Z,10.48
2022-10-11T00:12:03.899Z,9.00
2022-10-11T00:14:30.581Z,8.88
2022-10-11T00:16:57.282Z,9.30
2022-10-11T00:19:24.048Z,10.25
2022-10-11T00:21:50.968Z,9.52
2022-10-11T00:24:17.765Z,9.88
2022-10-11T00:26:47.006Z,8.88
2022-10-11T00:29:14.367Z,9.18
2022-10-11T00:31:41.131Z,9.10
2022-10-11T00:34:08.509Z,9.60
2022-10-11T00:36:35.235Z,8.73
2022-10-11T00:39:02.149Z,8.63
2022-10-11T00:41:28.824Z,9.02
2022-10-11T00:44:13.788Z,9.02
2022-10-11T00:46:43.282Z,9.32
2022-10-11T00:49:38.190Z,9.82
2022-10-11T00:52:29.073Z,8.30
2022-10-11T00:54:56.897Z,8.60
2022-10-11T00:57:26.128Z,9.05
2022-10-11T00:59:55.174Z,8.00
2022-10-11T01:02:23.746Z,8.45
2022-10-11T01:05:05.723Z,8.52
2022-10-11T01:07:39.126Z,8.80
2022-10-11T01:10:05.994Z,8.60
2022-10-11T01:12:32.975Z,9.02
2022-10-11T01:15:32.107Z,8.52
2022-10-11T01:18:13.319Z,8.13
2022-10-11T01:20:57.930Z,8.45
2022-10-11T01:23:58.349Z,8.45
2022-10-11T01:26:58.073Z,9.02
2022-10-11T01:29:57.308Z,8.85
2022-10-11T01:32:34.176Z,8.30
2022-10-11T01:35:13.644Z,8.52
2022-10-11T01:37:46.649Z,9.10
2022-10-11T01:40:21.842Z,8.93
2022-10-11T01:42:49.795Z,9.50
2022-10-11T01:45:18.628Z,7.78
2022-10-11T01:47:45.928Z,8.77
2022-10-11T01:50:34.418Z,8.98
2022-10-11T01:53:16.770Z,8.95
2022-10-11T01:56:10.872Z,9.32
2022-10-11T01:58:51.499Z,9.18
2022-10-11T02:01:39.541Z,8.68
2022-10-11T02:04:30.924Z,7.95
2022-10-11T02:07:02.507Z,9.35
2022-10-11T02:09:42.623Z,8.55
2022-10-11T02:12:17.250Z,8.73
2022-10-11T02:14:47.361Z,9.05
2022-10-11T02:17:21.378Z,8.18
2022-10-11T02:19:52.198Z,8.82
2022-10-11T02:22:38.852Z,9.07
2022-10-11T02:25:10.603Z,8.10
2022-10-11T02:27:40.584Z,8.63
2022-10-11T02:30:09.740Z,8.10
2022-10-11T02:32:39.553Z,8.80
2022-10-11T02:35:07.036Z,8.25
2022-10-11T02:37:40.845Z,9.63
2022-10-11T02:40:10.873Z,8.73
2022-10-11T02:42:42.997Z,8.48
2022-10-11T02:45:18.444Z,9.75
2022-10-11T02:47:46.222Z,9.50
2022-10-11T02:50:14.286Z,10.05
2022-10-11T02:52:41.036Z,9.85
2022-10-11T02:55:08.725Z,8.45
2022-10-11T02:57:35.762Z,9.20
2022-10-11T03:00:03.966Z,9.05
2022-10-11T03:02:30.669Z,9.20
2022-10-11T03:04:57.590Z,8.60
2022-10-11T03:07:24.472Z,9.52
2022-10-11T03:09:51.310Z,9.05
2022-10-11T03:12:18.018Z,8.48
2022-10-11T03:14:44.732Z,8.98
2022-10-11T03:17:34.359Z,9.55
2022-10-11T03:19:58.160Z,9.10
2022-10-11T03:22:24.805Z,10.07
2022-10-11T03:24:51.485Z,9.52
2022-10-11T03:27:18.207Z,9.32
2022-10-11T03:29:44.865Z,9.00
2022-10-11T03:32:11.546Z,8.68
2022-10-11T03:34:38.280Z,9.27
2022-10-11T03:37:04.956Z,10.63
2022-10-11T03:39:31.642Z,9.80
2022-10-11T03:41:58.377Z,10.10
2022-10-11T03:44:25.100Z,9.93
2022-10-11T03:46:51.751Z,9.85
2022-10-11T03:49:18.470Z,11.05
2022-10-11T03:51:45.214Z,9.70
2022-10-11T03:54:11.902Z,10.90
2022-10-11T03:56:38.593Z,11.70
2022-10-11T03:59:05.372Z,10.40
2022-10-11T04:01:37.492Z,9.98
2022-10-11T04:04:04.973Z,11.13
2022-10-11T04:06:32.676Z,11.07
2022-10-11T04:08:59.585Z,11.70
2022-10-11T04:11:27.019Z,11.45
2022-10-11T04:13:53.811Z,10.07
2022-10-11T04:16:20.613Z,9.55
2022-10-11T04:18:47.345Z,11.60
2022-10-11T04:21:14.128Z,10.93
2022-10-11T04:23:40.786Z,10.70
2022-10-11T04:26:08.828Z,11.38
2022-10-11T04:28:35.994Z,11.57
2022-10-11T04:31:05.031Z,11.13
2022-10-11T04:33:31.770Z,11.02
2022-10-11T04:35:58.438Z,11.43
2022-10-11T04:38:25.129Z,11.43
2022-10-11T04:40:51.839Z,11.40
2022-10-11T04:43:19.030Z,11.00
2022-10-11T04:45:46.233Z,10.20
2022-10-11T04:48:14.085Z,10.55
2022-10-11T04:50:40.796Z,10.88
2022-10-11T04:53:07.538Z,10.35
2022-10-11T04:55:34.244Z,10.10
2022-10-11T04:58:02.112Z,9.57
2022-10-11T05:00:28.956Z,9.95
2022-10-11T05:02:55.710Z,10.02
2022-10-11T05:05:22.384Z,9.60
2022-10-11T05:07:49.068Z,9.15
2022-10-11T05:10:15.849Z,8.50
2022-10-11T05:12:42.508Z,9.70
2022-10-11T05:15:09.661Z,8.73
2022-10-11T05:17:36.489Z,9.40
2022-10-11T05:20:03.937Z,8.82
2022-10-11T05:22:30.610Z,9.75
2022-10-11T05:24:57.342Z,9.02
2022-10-11T05:27:24.004Z,9.70
2022-10-11T05:29:50.655Z,9.93
2022-10-11T05:32:17.353Z,10.27
2022-10-11T05:34:44.035Z,10.07
2022-10-11T05:37:10.801Z,10.07
2022-10-11T05:39:37.547Z,9.73
2022-10-11T05:42:08.933Z,10.13
2022-10-11T05:44:36.519Z,9.65
2022-10-11T05:47:03.301Z,8.85
2022-10-11T05:49:30.032Z,9.23
2022-10-11T05:51:56.945Z,8.85
2022-10-11T05:54:23.728Z,9.45
2022-10-11T05:56:50.397Z,8.60
2022-10-11T05:59:17.081Z,8.75
2022-10-11T06:01:43.839Z,8.65
2022-10-11T06:04:11.752Z,9.23
2022-10-11T06:06:38.441Z,8.70
2022-10-11T06:09:05.155Z,8.43
2022-10-11T06:11:31.940Z,8.18
2022-10-11T06:13:58.733Z,8.35
2022-10-11T06:16:26.167Z,8.65
2022-10-11T06:18:54.630Z,9.40
2022-10-11T06:21:22.032Z,8.30
2022-10-11T06:23:50.886Z,8.82
2022-10-11T06:26:18.090Z,8.07
2022-10-11T06:28:44.921Z,8.32
2022-10-11T06:31:12.652Z,8.77
2022-10-11T06:33:39.588Z,6.97
2022-10-11T06:36:10.605Z,8.20
2022-10-11T06:38:42.336Z,6.93
2022-10-11T06:41:20.253Z,9.00
2022-10-11T06:43:49.335Z,7.35
2022-10-11T06:46:16.669Z,8.80
2022-10-11T06:48:45.044Z,7.30
2022-10-11T06:51:13.197Z,7.68
2022-10-11T06:53:40.399Z,7.03
2022-10-11T06:56:10.384Z,7.05
2022-10-11T06:58:37.957Z,7.88
2022-10-11T07:01:10.449Z,7.35
2022-10-11T07:03:37.606Z,8.20
2022-10-11T07:06:10.509Z,8.25
2022-10-11T07:08:38.434Z,8.00
2022-10-11T07:11:13.747Z,6.75
2022-10-11T07:13:41.416Z,7.30
2022-10-11T07:16:10.770Z,7.05
2022-10-11T07:18:37.889Z,6.72
2022-10-11T07:21:06.449Z,7.05
2022-10-11T07:23:33.534Z,7.82
2022-10-11T07:26:00.301Z,8.35
2022-10-11T07:28:28.798Z,7.30
2022-10-11T07:30:56.057Z,6.82
2022-10-11T07:33:22.794Z,7.60
2022-10-11T07:35:50.064Z,6.28
2022-10-11T07:38:17.341Z,7.30
2022-10-11T07:40:45.960Z,7.20
2022-10-11T07:43:13.509Z,7.55
2022-10-11T07:45:41.537Z,7.35
2022-10-11T07:48:09.297Z,8.43
2022-10-11T07:50:36.024Z,7.03
2022-10-11T07:53:03.600Z,5.72
2022-10-11T07:55:33.956Z,5.55
2022-10-11T07:58:00.716Z,6.05
2022-10-11T08:00:27.519Z,5.63
2022-10-11T08:02:54.202Z,6.28
2022-10-11T08:05:21.057Z,5.57
2022-10-11T08:07:48.732Z,5.75
2022-10-11T08:10:15.648Z,5.65
2022-10-11T08:12:42.351Z,6.03
2022-10-11T08:15:09.415Z,5.55
2022-10-11T08:17:36.193Z,5.50
2022-10-11T08:20:03.059Z,5.10
2022-10-11T08:22:30.434Z,5.13
2022-10-11T08:24:57.227Z,6.05
2022-10-11T08:27:23.993Z,4.93
2022-10-11T08:29:51.262Z,5.20
2022-10-11T08:32:17.921Z,4.75
2022-10-11T08:34:44.645Z,4.72
2022-10-11T08:37:11.384Z,4.80
2022-10-11T08:39:38.031Z,4.72
2022-10-11T08:42:44.920Z,4.60
2022-10-11T08:45:29.943Z,4.60
2022-10-11T08:48:16.228Z,4.05
2022-10-11T08:50:46.620Z,4.18
2022-10-11T08:53:39.145Z,3.78
2022-10-11T08:56:07.793Z,3.97
2022-10-11T08:58:44.412Z,3.85
2022-10-11T09:01:18.159Z,4.68
2022-10-11T09:03:47.499Z,4.65
2022-10-11T09:06:37.136Z,6.18
2022-10-11T09:09:22.964Z,4.40
2022-10-11T09:12:03.827Z,4.78
2022-10-11T09:14:49.524Z,4.93
2022-10-11T09:17:57.549Z,5.50
2022-10-11T09:20:31.541Z,4.63
2022-10-11T09:23:19.459Z,5.50
2022-10-11T09:26:00.655Z,5.43
2022-10-11T09:28:58.679Z,4.32
2022-10-11T09:31:28.798Z,5.18
2022-10-11T09:33:56.687Z,3.42
2022-10-11T09:36:49.386Z,4.20
2022-10-11T09:39:27.999Z,4.10
2022-10-11T09:42:03.591Z,4.55
2022-10-11T09:44:35.201Z,4.32
2022-10-11T09:47:01.887Z,4.45
2022-10-11T09:49:35.695Z,3.80
2022-10-11T09:52:03.860Z,4.80
2022-10-11T09:54:54.370Z,4.70
2022-10-11T09:57:24.651Z,7.45
2022-10-11T10:00:01.818Z,16.65
2022-10-11T10:02:30.318Z,7.90
2022-10-11T10:05:00.291Z,11.65
2022-10-11T10:07:29.315Z,7.15
2022-10-11T10:09:56.779Z,15.20
2022-10-11T10:12:29.731Z,11.73
2022-10-11T10:15:02.336Z,14.38
2022-10-11T10:17:29.182Z,8.05
2022-10-11T10:20:00.217Z,7.05
2022-10-11T10:22:30.638Z,6.50
2022-10-11T10:25:00.276Z,7.57
2022-10-11T10:27:29.318Z,21.60
2022-10-11T10:30:19.368Z,12.65
2022-10-11T10:32:55.943Z,13.55
2022-10-11T10:35:22.589Z,5.93
2022-10-11T10:38:26.600Z,9.05
2022-10-11T10:40:59.030Z,9.70
2022-10-11T10:43:29.723Z,12.80
2022-10-11T10:46:20.601Z,6.18
2022-10-11T10:52:13.105Z,7.30
2022-10-11T10:54:44.491Z,5.53
2022-10-11T10:57:20.883Z,4.72
2022-10-11T11:00:04.595Z,5.90
2022-10-11T11:02:41.519Z,6.00
2022-10-11T11:05:58.063Z,4.95
2022-10-11T11:08:49.084Z,4.55
2022-10-11T11:11:41.466Z,5.88
2022-10-11T11:14:14.265Z,8.73
2022-10-11T11:17:15.617Z,6.32
2022-10-11T11:22:54.420Z,5.50
2022-10-11T11:25:41.357Z,6.18
2022-10-11T11:28:28.028Z,5.22
2022-10-11T11:31:08.800Z,6.47
2022-10-11T11:34:13.417Z,6.65
2022-10-11T11:36:51.953Z,6.32
2022-10-11T11:39:39.727Z,3.78
2022-10-11T11:42:18.132Z,4.07
2022-10-11T11:44:48.565Z,3.95
2022-10-11T11:47:36.795Z,5.70
2022-10-11T11:50:06.107Z,3.35
2022-10-11T11:52:39.315Z,3.90
2022-10-11T11:55:18.627Z,3.60
2022-10-11T11:57:53.519Z,3.97
2022-10-11T12:00:23.230Z,3.90
2022-10-11T12:03:04.256Z,3.28
2022-10-11T12:05:34.739Z,3.70
2022-10-11T12:08:03.539Z,3.03
2022-10-11T12:10:53.274Z,3.80
2022-10-11T12:13:31.999Z,3.90
2022-10-11T12:15:59.235Z,5.85
2022-10-11T12:18:26.632Z,5.60
2022-10-11T12:21:31.900Z,3.13
2022-10-11T12:24:12.086Z,3.58
2022-10-11T12:26:45.086Z,3.30
2022-10-11T12:29:24.545Z,3.78
2022-10-11T12:32:00.854Z,4.43
2022-10-11T12:34:35.298Z,3.95
2022-10-11T12:37:20.187Z,3.75
2022-10-11T12:39:51.605Z,3.45
2022-10-11T12:42:33.706Z,3.90
2022-10-11T12:45:12.737Z,3.92
2022-10-11T12:47:59.966Z,5.25
2022-10-11T12:50:48.548Z,4.45
2022-10-11T12:53:24.497Z,4.55
2022-10-11T12:56:00.312Z,3.65
2022-10-11T12:58:41.451Z,3.58
2022-10-11T13:01:12.912Z,3.80
2022-10-11T13:03:46.593Z,3.85
2022-10-11T13:06:48.697Z,3.75
2022-10-11T13:09:33.303Z,3.50
2022-10-11T13:12:33.881Z,3.00
2022-10-11T13:15:07.024Z,3.85
2022-10-11T13:17:38.617Z,3.17
2022-10-11T13:20:18.219Z,3.88
2022-10-11T13:22:48.089Z,3.60
2022-10-11T13:25:23.654Z,4.10
2022-10-11T13:27:53.103Z,4.57
2022-10-11T13:30:26.257Z,3.50
2022-10-11T13:32:54.639Z,3.08
2022-10-11T13:35:36.318Z,3.20
2022-10-11T13:38:04.754Z,2.88
2022-10-11T13:40:32.190Z,3.17
2022-10-11T13:43:00.005Z,3.53
2022-10-11T13:45:32.204Z,3.60
2022-10-11T13:47:59.005Z,3.30
2022-10-11T13:50:34.388Z,2.83
2022-10-11T13:53:23.711Z,2.95
2022-10-11T13:56:12.499Z,2.95
2022-10-11T13:58:47.123Z,5.05
2022-10-11T14:01:20.982Z,4.13
2022-10-11T14:03:55.212Z,3.90
2022-10-11T14:06:22.314Z,3.65
2022-10-11T14:08:55.493Z,3.38
2022-10-11T14:11:37.583Z,2.60
2022-10-11T14:14:28.875Z,3.40
2022-10-11T14:17:17.498Z,3.08
2022-10-11T14:19:46.322Z,3.08
2022-10-11T14:22:17.632Z,2.95
2022-10-11T14:24:47.678Z,3.65
2022-10-11T14:27:23.967Z,11.98
2022-10-11T14:30:12.979Z,5.68
2022-10-11T14:32:42.244Z,4.30
2022-10-11T14:35:21.503Z,4.55
2022-10-11T14:37:48.305Z,3.65
2022-10-11T14:40:27.220Z,3.00
2022-10-11T14:42:54.119Z,3.33
2022-10-11T14:45:21.345Z,2.58
2022-10-11T14:47:49.060Z,2.97
2022-10-11T14:50:33.170Z,3.22
2022-10-11T14:53:00.507Z,2.70
2022-10-11T14:55:27.377Z,2.67
2022-10-11T14:57:54.309Z,2.65
2022-10-11T15:00:26.679Z,2.65
2022-10-11T15:02:54.371Z,2.47
2022-10-11T15:05:22.928Z,2.80
2022-10-11T15:07:50.109Z,2.97
2022-10-11T15:10:26.715Z,2.10
2022-10-11T15:12:55.101Z,5.22
2022-10-11T15:15:24.796Z,5.35
2022-10-11T15:17:57.113Z,3.00
2022-10-11T15:20:27.231Z,3.85
2022-10-11T15:22:55.275Z,3.70
2022-10-11T15:25:23.541Z,3.28
2022-10-11T15:27:51.508Z,2.92
2022-10-11T15:30:19.902Z,3.72
2022-10-11T15:32:47.556Z,3.92
2022-10-11T15:35:14.841Z,3.85
2022-10-11T15:37:42.187Z,2.95
2022-10-11T15:40:32.225Z,3.40
2022-10-11T15:42:59.621Z,4.63
2022-10-11T15:45:26.995Z,4.05
2022-10-11T15:47:53.724Z,3.70
2022-10-11T15:50:33.698Z,4.22
2022-10-11T15:53:01.573Z,3.55
2022-10-11T15:55:28.810Z,4.40
2022-10-11T15:57:55.631Z,4.15
2022-10-11T16:00:22.560Z,5.25
2022-10-11T16:02:54.349Z,5.32
2022-10-11T16:05:24.604Z,5.15
2022-10-11T16:07:52.520Z,4.70
2022-10-11T16:10:20.092Z,4.57
2022-10-11T16:12:46.934Z,5.10
2022-10-11T16:15:14.035Z,4.45
2022-10-11T16:17:40.738Z,6.47
2022-10-11T16:20:08.435Z,4.93
2022-10-11T16:22:35.782Z,4.20
2022-10-11T16:25:03.853Z,4.43
2022-10-11T16:27:30.755Z,5.07
2022-10-11T16:29:57.813Z,5.18
2022-10-11T16:32:25.351Z,5.03
2022-10-11T16:34:52.051Z,5.75
2022-10-11T16:37:18.932Z,5.72
2022-10-11T16:39:45.911Z,5.50
2022-10-11T16:42:12.637Z,5.45
2022-10-11T16:44:39.476Z,5.70
2022-10-11T16:47:06.756Z,5.70
2022-10-11T16:49:33.649Z,5.60
2022-10-11T16:52:02.429Z,5.90
2022-10-11T16:54:30.331Z,5.70
2022-10-11T16:56:57.909Z,6.45
2022-10-11T16:59:24.750Z,6.93
2022-10-11T17:01:51.511Z,6.00
2022-10-11T17:04:18.348Z,6.85
2022-10-11T17:06:45.284Z,5.53
2022-10-11T17:09:12.016Z,6.32
2022-10-11T17:11:38.805Z,6.40
2022-10-11T17:14:06.093Z,6.80
2022-10-11T17:16:33.345Z,8.20
2022-10-11T17:19:00.316Z,6.32
2022-10-11T17:21:27.207Z,8.20
2022-10-11T17:23:54.102Z,8.10
2022-10-11T17:26:26.296Z,10.05
2022-10-11T17:28:58.401Z,8.90
2022-10-11T17:31:26.014Z,7.82
2022-10-11T17:33:54.344Z,7.57
2022-10-11T17:36:24.098Z,9.20
2022-10-11T17:38:51.743Z,9.57
2022-10-11T17:41:19.104Z,9.40
2022-10-11T17:43:46.742Z,10.10
2022-10-11T17:46:15.199Z,9.73
2022-10-11T17:48:42.357Z,9.90
2022-10-11T17:51:11.542Z,9.35
2022-10-11T17:53:38.785Z,9.02
2022-10-11T17:56:11.514Z,10.40
2022-10-11T17:58:38.626Z,11.40
2022-10-11T18:01:08.792Z,12.25
2022-10-11T18:03:36.227Z,11.73
2022-10-11T18:06:05.645Z,11.52
2022-10-11T18:08:39.799Z,9.75
2022-10-11T18:11:16.746Z,13.63
2022-10-11T18:13:46.469Z,17.00
2022-10-11T18:16:15.845Z,14.20
2022-10-11T18:18:43.309Z,12.85
2022-10-11T18:21:10.639Z,10.50
2022-10-11T18:23:41.168Z,10.98
2022-10-11T18:26:34.447Z,19.90
2022-10-11T18:29:01.356Z,40.40
2022-10-11T18:31:30.847Z,23.58
2022-10-11T18:33:58.046Z,11.63
2022-10-11T18:36:27.150Z,10.20
2022-10-11T18:38:56.112Z,10.70
2022-10-11T18:41:24.677Z,11.90
2022-10-11T18:43:53.820Z,9.25
2022-10-11T18:46:21.959Z,9.35
2022-10-11T18:48:53.555Z,10.65
2022-10-11T18:51:23.664Z,9.65
2022-10-11T18:53:51.067Z,9.52
2022-10-11T18:56:22.935Z,10.60
2022-10-11T18:58:50.905Z,13.55
2022-10-11T19:01:20.400Z,15.23
2022-10-11T19:03:49.168Z,17.13
2022-10-11T19:06:18.517Z,12.93
2022-10-11T19:08:49.941Z,12.00
2022-10-11T19:11:21.474Z,12.07
2022-10-11T19:13:54.952Z,12.63
2022-10-11T19:16:21.778Z,12.10
2022-10-11T19:18:51.980Z,11.55
2022-10-11T19:21:19.655Z,11.75
2022-10-11T19:23:47.988Z,10.85
2022-10-11T19:26:20.504Z,10.85
2022-10-11T19:28:48.443Z,11.13
2022-10-11T19:31:16.972Z,11.10
2022-10-11T19:33:45.280Z,11.10
2022-10-11T19:36:16.503Z,10.63
2022-10-11T19:38:45.953Z,11.43
2022-10-11T19:41:14.185Z,11.55
2022-10-11T19:43:41.085Z,11.70
2022-10-11T19:46:10.545Z,11.25
2022-10-11T19:48:39.353Z,11.13
2022-10-11T19:51:12.011Z,10.77
2022-10-11T19:53:39.222Z,11.25
2022-10-11T19:56:12.040Z,10.93
2022-10-11T19:58:39.688Z,10.80
2022-10-11T20:01:13.395Z,13.60
2022-10-11T20:03:40.096Z,11.63
2022-10-11T20:06:08.339Z,11.48
2022-10-11T20:08:36.281Z,10.35
2022-10-11T20:11:06.160Z,9.75
2022-10-11T20:13:35.069Z,10.52
2022-10-11T20:16:04.992Z,9.90
2022-10-11T20:18:31.996Z,10.70
2022-10-11T20:21:08.911Z,10.63
2022-10-11T20:23:35.827Z,9.88
2022-10-11T20:26:06.037Z,10.23
2022-10-11T20:28:34.638Z,9.70
2022-10-11T20:31:02.744Z,10.50
2022-10-11T20:33:31.834Z,10.07
2022-10-11T20:36:06.566Z,10.30
2022-10-11T20:38:34.754Z,10.82
2022-10-11T20:41:07.035Z,10.82
2022-10-11T20:43:33.970Z,10.27
2022-10-11T20:46:07.245Z,9.90
2022-10-11T20:48:35.108Z,10.40
2022-10-11T20:51:02.081Z,11.23
2022-10-11T20:53:28.933Z,11.13
2022-10-11T20:55:56.371Z,10.20
2022-10-11T20:58:24.084Z,10.27
2022-10-11T21:00:50.826Z,10.32
2022-10-11T21:03:17.982Z,9.73
2022-10-11T21:05:45.057Z,8.70
2022-10-11T21:08:12.269Z,10.23
2022-10-11T21:10:39.351Z,10.23
2022-10-11T21:13:06.189Z,8.68
2022-10-11T21:15:32.978Z,9.15
2022-10-11T21:17:59.712Z,9.13
2022-10-11T21:20:26.465Z,9.38
2022-10-11T21:22:53.347Z,9.25
2022-10-11T21:25:20.229Z,8.75
2022-10-11T21:27:46.917Z,9.18
2022-10-11T21:30:13.772Z,9.43
2022-10-11T21:32:40.449Z,7.95
2022-10-11T21:35:07.151Z,7.97
2022-10-11T21:37:34.079Z,8.65
2022-10-11T21:40:00.909Z,8.35
2022-10-11T21:42:29.688Z,8.15
2022-10-11T21:44:56.471Z,8.60
2022-10-11T21:47:23.209Z,9.07
2022-10-11T21:49:50.200Z,8.00
2022-10-11T21:52:17.123Z,8.60
2022-10-11T21:54:43.843Z,8.00
2022-10-11T21:57:10.493Z,8.07
2022-10-11T21:59:37.268Z,7.70
2022-10-11T22:02:04.061Z,8.52
2022-10-11T22:04:30.794Z,8.73
2022-10-11T22:06:57.617Z,7.55
2022-10-11T22:09:24.404Z,6.85
2022-10-11T22:11:51.123Z,6.85
2022-10-11T22:14:18.716Z,7.60
2022-10-11T22:16:45.415Z,8.68
2022-10-11T22:19:12.347Z,6.63
2022-10-11T22:21:44.013Z,7.93
2022-10-11T22:24:11.676Z,6.68
2022-10-11T22:26:38.547Z,7.75
2022-10-11T22:29:05.259Z,6.50
2022-10-11T22:31:31.996Z,6.78
2022-10-11T22:34:00.373Z,6.40
2022-10-11T22:36:28.348Z,6.97
2022-10-11T22:38:55.105Z,6.38
2022-10-11T22:41:22.627Z,7.00
2022-10-11T22:43:49.867Z,6.63
2022-10-11T22:46:16.843Z,6.45
2022-10-11T22:48:43.649Z,6.18
2022-10-11T22:51:10.392Z,6.38
2022-10-11T22:53:37.065Z,5.85
2022-10-11T22:56:03.886Z,6.05
2022-10-11T22:58:30.625Z,6.25
2022-10-11T23:00:57.298Z,5.65
2022-10-11T23:03:24.058Z,5.65
2022-10-11T23:05:57.865Z,4.53
2022-10-11T23:08:25.080Z,6.38
2022-10-11T23:10:52.232Z,6.32
2022-10-11T23:13:19.454Z,6.68
2022-10-11T23:15:46.120Z,6.03
2022-10-11T23:18:13.097Z,5.80
2022-10-11T23:20:39.956Z,6.30
2022-10-11T23:23:07.111Z,5.93
2022-10-11T23:25:33.837Z,5.32
2022-10-11T23:28:01.516Z,5.90
2022-10-11T23:30:29.572Z,6.22
2022-10-11T23:32:56.285Z,5.15
2022-10-11T23:35:23.399Z,5.38
2022-10-11T23:37:50.055Z,4.75
2022-10-11T23:40:16.832Z,5.15
2022-10-11T23:42:43.547Z,5.63
2022-10-11T23:45:10.552Z,5.22
2022-10-11T23:47:37.623Z,4.93
2022-10-11T23:50:05.001Z,4.97
2022-10-11T23:52:31.694Z,4.57
2022-10-11T23:54:58.384Z,5.00
2022-10-11T23:57:25.093Z,5.10
2022-10-11T23:59:51.732Z,4.93
